Historique des mesures à Cassis (13260), France
Quotidien Résumé Juin 13, 2021 Unités:  Métrique    US   Métrique/US
Quotidien Hebdomadaire Mensuel Annuel
  Maximum: Minimum: Moyenne:
Température: 34.5 °C 24.1 °C 29.3 °C
Point de rosée: 21.1 °C 14.9 °C 17.9 °C
Humidité: 62% 40% 51%
Vitesse du vent: 7.2km/h 0km/h 2.1km/h
Rafales: 10.1km/h - -
Vent- - SSW
Pression: 1017.5 hPa 1015.6 hPa -
Précipitations: 0.0 mm    
Historical Graphs
 
 
Mesures pour : Juin 13, 2021
Heure Temperature Point de rosée Pression Vent Vitesse du vent Rafales Humidité Pluie (par heure)
00:11 25.2 °C 14.9 °C 1016.4 hPa NW 3.6 km/h 4.3 km/h 53% 0.0 mm
01:11 25.3 °C 17.2 °C 1016.7 hPa NNE 2.5 km/h 9.7 km/h 61% 0.0 mm
02:11 25.9 °C 17 °C 1016.0 hPa NW 7.2 km/h 10.1 km/h 58% 0.0 mm
03:11 25.9 °C 16.2 °C 1015.6 hPa North 4.7 km/h 8.6 km/h 55% 0.0 mm
04:11 25.2 °C 17.4 °C 1016.1 hPa NW 1.4 km/h 1.4 km/h 62% 0.0 mm
05:11 24.9 °C 16.1 °C 1015.8 hPa Calm   2.2 km/h 58% 0.0 mm
06:11 24.1 °C 15.3 °C 1016.2 hPa NW 4.3 km/h 8.3 km/h 58% 0.0 mm
07:11 24.2 °C 15.1 °C 1016.4 hPa NW 4 km/h 5.8 km/h 57% 0.0 mm
08:11 29.1 °C 17 °C 1016.7 hPa NW 2.2 km/h 4.7 km/h 48% 0.0 mm
09:11 30.4 °C 17.1 °C 1017.3 hPa Calm   1.4 km/h 45% 0.0 mm
10:11 30.2 °C 18.3 °C 1017.3 hPa Calm   10.1 km/h 49% 0.0 mm
11:11 31.9 °C 19.9 °C 1017.5 hPa ESE 2.2 km/h 9.4 km/h 49% 0.0 mm
12:11 33.3 °C 20.4 °C 1017.3 hPa ESE 4 km/h 8.6 km/h 47% 0.0 mm
13:11 33.5 °C 19.5 °C 1017.4 hPa SE 3.2 km/h 8.3 km/h 44% 0.0 mm
14:11 34.2 °C 18.7 °C 1017.0 hPa Calm   7.6 km/h 40% 0.0 mm
15:11 34.5 °C 19 °C 1016.8 hPa Calm   9.7 km/h 40% 0.0 mm
16:11 33.4 °C 18.7 °C 1016.8 hPa Calm   9.4 km/h 42% 0.0 mm
17:11 33.3 °C 18.2 °C 1016.8 hPa SSE 3.6 km/h 7.2 km/h 41% 0.0 mm
18:11 32.5 °C 21.1 °C 1016.6 hPa Calm   7.6 km/h 51% 0.0 mm
19:11 31.3 °C 20.6 °C 1016.4 hPa Calm     53% 0.0 mm
20:11 30.9 °C 19.3 °C 1016.3 hPa Calm   1.4 km/h 50% 0.0 mm
21:11 28.9 °C 18.1 °C 1016.7 hPa SW 4 km/h 4.7 km/h 52% 0.0 mm
22:11 27.9 °C 16.5 °C 1017.3 hPa SSE 3.2 km/h 4.7 km/h 50% 0.0 mm
23:11 26.6 °C 17.4 °C 1017.1 hPa Calm     57% 0.0 mm
Observations météo à CASSIS
WU-History script by Weather Underground - 2 mb